KAVX

Catalina Airport

Avalon, California, USA
METAR KAVX 170151Z AUTO 07004KT 10SM CLR 12/06 A2975 RMK AO2 SLP069 T01170061
Observed Flight Rules
Dec-17 @ 01:51 UTC (42 minutes ago) Visual Flight Rules
Wind Visibility Clouds
70° at 4 knots 10 miles
  • Clear skies
Temperatures Readings
Current 12°C / 54°F
Dewpoint 6°C / 43°F
Humidity 67%
Altimeter 29.75" Hg
Pressure 1006.9 hPa
Elevation 482
METAR KAVX 170151Z AUTO 07004KT 10SM CLR 12/06 A2975 RMK AO2 SLP069 T01170061
Observed Flight Rules
Dec-17 @ 01:51 UTC
(42 minutes ago)
VFR
Wind Visibility
70° at 4 knots 10 miles
Clouds
  • Clear skies
Temperature Dewpoint
12°C / 54°F 6°C / 43°F
Humidity Altimeter Pressure
67% 29.75" Hg 1006.9 hPa